sensor_id;sensor_type;location;lat;lon;timestamp;P1;durP1;ratioP1;P2;durP2;ratioP2
46447;SDS011;32145;50.390;30.778;2024-01-06T00:02:35;29.83;;;16.05;;
46447;SDS011;32145;50.390;30.778;2024-01-06T00:05:19;31.80;;;16.33;;
46447;SDS011;32145;50.390;30.778;2024-01-06T00:08:17;29.58;;;14.75;;
46447;SDS011;32145;50.390;30.778;2024-01-06T00:11:01;28.55;;;14.23;;
46447;SDS011;32145;50.390;30.778;2024-01-06T00:13:45;33.40;;;16.33;;
46447;SDS011;32145;50.390;30.778;2024-01-06T00:16:42;36.60;;;17.08;;
46447;SDS011;32145;50.390;30.778;2024-01-06T00:19:38;34.97;;;16.83;;
46447;SDS011;32145;50.390;30.778;2024-01-06T00:22:28;32.20;;;15.23;;
46447;SDS011;32145;50.390;30.778;2024-01-06T00:25:24;27.48;;;14.27;;
46447;SDS011;32145;50.390;30.778;2024-01-06T00:28:08;28.10;;;13.95;;
46447;SDS011;32145;50.390;30.778;2024-01-06T00:31:02;34.30;;;16.23;;
46447;SDS011;32145;50.390;30.778;2024-01-06T00:34:00;34.63;;;15.93;;
46447;SDS011;32145;50.390;30.778;2024-01-06T00:36:44;38.28;;;17.10;;
46447;SDS011;32145;50.390;30.778;2024-01-06T00:39:34;33.83;;;16.67;;
46447;SDS011;32145;50.390;30.778;2024-01-06T00:42:30;36.35;;;17.85;;
46447;SDS011;32145;50.390;30.778;2024-01-06T00:45:14;34.78;;;16.75;;
46447;SDS011;32145;50.390;30.778;2024-01-06T00:48:11;37.65;;;17.50;;
46447;SDS011;32145;50.390;30.778;2024-01-06T00:51:05;34.60;;;16.90;;
46447;SDS011;32145;50.390;30.778;2024-01-06T00:53:49;35.80;;;17.15;;
46447;SDS011;32145;50.390;30.778;2024-01-06T00:56:43;42.63;;;18.48;;
46447;SDS011;32145;50.390;30.778;2024-01-06T00:59:29;38.65;;;18.02;;
46447;SDS011;32145;50.390;30.778;2024-01-06T01:02:25;33.35;;;17.00;;
46447;SDS011;32145;50.390;30.778;2024-01-06T01:05:10;40.13;;;18.48;;
46447;SDS011;32145;50.390;30.778;2024-01-06T01:08:04;38.97;;;17.98;;
46447;SDS011;32145;50.390;30.778;2024-01-06T01:10:49;36.30;;;18.08;;
46447;SDS011;32145;50.390;30.778;2024-01-06T01:13:33;37.28;;;18.50;;
46447;SDS011;32145;50.390;30.778;2024-01-06T01:16:18;39.97;;;19.77;;
46447;SDS011;32145;50.390;30.778;2024-01-06T01:19:15;35.07;;;17.63;;
46447;SDS011;32145;50.390;30.778;2024-01-06T01:22:05;37.35;;;17.63;;
46447;SDS011;32145;50.390;30.778;2024-01-06T01:24:50;40.92;;;18.67;;
46447;SDS011;32145;50.390;30.778;2024-01-06T01:27:46;42.17;;;19.48;;
46447;SDS011;32145;50.390;30.778;2024-01-06T01:30:30;39.08;;;18.17;;
46447;SDS011;32145;50.390;30.778;2024-01-06T01:33:26;43.70;;;19.33;;
46447;SDS011;32145;50.390;30.778;2024-01-06T01:36:20;39.55;;;19.13;;
46447;SDS011;32145;50.390;30.778;2024-01-06T01:39:14;36.33;;;17.50;;
46447;SDS011;32145;50.390;30.778;2024-01-06T01:42:09;41.88;;;19.85;;
46447;SDS011;32145;50.390;30.778;2024-01-06T01:44:53;39.65;;;19.95;;
46447;SDS011;32145;50.390;30.778;2024-01-06T01:47:47;41.83;;;20.02;;
46447;SDS011;32145;50.390;30.778;2024-01-06T01:50:33;41.35;;;20.00;;
46447;SDS011;32145;50.390;30.778;2024-01-06T01:53:24;38.30;;;18.83;;
46447;SDS011;32145;50.390;30.778;2024-01-06T01:56:08;41.65;;;19.15;;
46447;SDS011;32145;50.390;30.778;2024-01-06T01:58:58;39.20;;;19.33;;
46447;SDS011;32145;50.390;30.778;2024-01-06T02:01:53;44.38;;;20.08;;
46447;SDS011;32145;50.390;30.778;2024-01-06T02:04:37;47.67;;;20.38;;
46447;SDS011;32145;50.390;30.778;2024-01-06T02:07:23;41.83;;;18.98;;
46447;SDS011;32145;50.390;30.778;2024-01-06T02:10:20;37.10;;;17.17;;
46447;SDS011;32145;50.390;30.778;2024-01-06T02:13:08;28.90;;;13.85;;
46447;SDS011;32145;50.390;30.778;2024-01-06T02:15:53;29.42;;;14.15;;
46447;SDS011;32145;50.390;30.778;2024-01-06T02:18:37;31.95;;;14.70;;
46447;SDS011;32145;50.390;30.778;2024-01-06T02:21:32;50.25;;;17.67;;
46447;SDS011;32145;50.390;30.778;2024-01-06T02:24:30;51.75;;;18.33;;
46447;SDS011;32145;50.390;30.778;2024-01-06T02:27:15;31.60;;;13.13;;
46447;SDS011;32145;50.390;30.778;2024-01-06T02:29:59;47.72;;;19.42;;
46447;SDS011;32145;50.390;30.778;2024-01-06T02:32:55;20.48;;;9.40;;
46447;SDS011;32145;50.390;30.778;2024-01-06T02:35:46;20.25;;;9.57;;
46447;SDS011;32145;50.390;30.778;2024-01-06T02:38:30;17.27;;;8.45;;
46447;SDS011;32145;50.390;30.778;2024-01-06T02:41:22;12.45;;;6.85;;
46447;SDS011;32145;50.390;30.778;2024-01-06T02:44:06;12.00;;;6.18;;
46447;SDS011;32145;50.390;30.778;2024-01-06T02:47:02;10.07;;;5.47;;
46447;SDS011;32145;50.390;30.778;2024-01-06T02:49:47;10.27;;;5.50;;
46447;SDS011;32145;50.390;30.778;2024-01-06T02:52:41;14.68;;;7.22;;
46447;SDS011;32145;50.390;30.778;2024-01-06T02:55:25;8.20;;;4.57;;
46447;SDS011;32145;50.390;30.778;2024-01-06T02:58:21;8.68;;;4.63;;
46447;SDS011;32145;50.390;30.778;2024-01-06T03:01:05;8.13;;;4.40;;
46447;SDS011;32145;50.390;30.778;2024-01-06T03:03:59;6.90;;;4.10;;
46447;SDS011;32145;50.390;30.778;2024-01-06T03:06:55;6.50;;;3.70;;
46447;SDS011;32145;50.390;30.778;2024-01-06T03:09:40;6.88;;;3.53;;
46447;SDS011;32145;50.390;30.778;2024-01-06T03:12:34;9.18;;;5.10;;
46447;SDS011;32145;50.390;30.778;2024-01-06T03:15:30;7.28;;;3.97;;
46447;SDS011;32145;50.390;30.778;2024-01-06T03:18:15;5.60;;;3.15;;
46447;SDS011;32145;50.390;30.778;2024-01-06T03:20:59;6.22;;;3.03;;
46447;SDS011;32145;50.390;30.778;2024-01-06T03:23:56;6.65;;;3.60;;
46447;SDS011;32145;50.390;30.778;2024-01-06T03:26:40;7.50;;;3.60;;
46447;SDS011;32145;50.390;30.778;2024-01-06T03:29:34;7.18;;;4.25;;
46447;SDS011;32145;50.390;30.778;2024-01-06T03:32:20;8.20;;;3.85;;
46447;SDS011;32145;50.390;30.778;2024-01-06T03:35:15;7.10;;;3.80;;
46447;SDS011;32145;50.390;30.778;2024-01-06T03:38:09;8.30;;;4.07;;
46447;SDS011;32145;50.390;30.778;2024-01-06T03:41:05;7.47;;;3.80;;
46447;SDS011;32145;50.390;30.778;2024-01-06T03:43:49;8.15;;;4.22;;
46447;SDS011;32145;50.390;30.778;2024-01-06T03:46:43;10.25;;;4.63;;
46447;SDS011;32145;50.390;30.778;2024-01-06T03:49:29;8.15;;;4.32;;
46447;SDS011;32145;50.390;30.778;2024-01-06T03:52:26;8.07;;;4.00;;
46447;SDS011;32145;50.390;30.778;2024-01-06T03:55:22;7.22;;;4.00;;
46447;SDS011;32145;50.390;30.778;2024-01-06T03:58:16;7.53;;;3.83;;
46447;SDS011;32145;50.390;30.778;2024-01-06T04:01:00;6.28;;;3.45;;
46447;SDS011;32145;50.390;30.778;2024-01-06T04:03:57;6.15;;;3.40;;
46447;SDS011;32145;50.390;30.778;2024-01-06T04:06:54;5.63;;;3.00;;
46447;SDS011;32145;50.390;30.778;2024-01-06T04:09:41;7.00;;;3.63;;
46447;SDS011;32145;50.390;30.778;2024-01-06T04:12:37;8.85;;;3.90;;
46447;SDS011;32145;50.390;30.778;2024-01-06T04:15:28;7.50;;;3.38;;
46447;SDS011;32145;50.390;30.778;2024-01-06T04:18:22;6.63;;;3.38;;
46447;SDS011;32145;50.390;30.778;2024-01-06T04:21:16;7.85;;;3.95;;
46447;SDS011;32145;50.390;30.778;2024-01-06T04:24:14;8.40;;;3.90;;
46447;SDS011;32145;50.390;30.778;2024-01-06T04:26:58;10.25;;;4.88;;
46447;SDS011;32145;50.390;30.778;2024-01-06T04:29:42;9.13;;;4.30;;
46447;SDS011;32145;50.390;30.778;2024-01-06T04:32:36;8.43;;;3.80;;
46447;SDS011;32145;50.390;30.778;2024-01-06T04:35:30;7.50;;;3.40;;
46447;SDS011;32145;50.390;30.778;2024-01-06T04:38:15;5.75;;;3.05;;
46447;SDS011;32145;50.390;30.778;2024-01-06T04:41:11;4.80;;;2.92;;
46447;SDS011;32145;50.390;30.778;2024-01-06T04:44:01;6.22;;;3.13;;
46447;SDS011;32145;50.390;30.778;2024-01-06T04:46:55;5.22;;;3.05;;
46447;SDS011;32145;50.390;30.778;2024-01-06T04:49:40;6.60;;;3.17;;
46447;SDS011;32145;50.390;30.778;2024-01-06T04:52:24;5.80;;;3.50;;
46447;SDS011;32145;50.390;30.778;2024-01-06T04:55:21;5.82;;;3.50;;
46447;SDS011;32145;50.390;30.778;2024-01-06T04:58:20;9.27;;;3.65;;
46447;SDS011;32145;50.390;30.778;2024-01-06T05:01:14;8.50;;;4.30;;
46447;SDS011;32145;50.390;30.778;2024-01-06T05:03:59;9.80;;;4.55;;
46447;SDS011;32145;50.390;30.778;2024-01-06T05:06:55;9.23;;;5.82;;
46447;SDS011;32145;50.390;30.778;2024-01-06T05:09:39;8.35;;;5.22;;
46447;SDS011;32145;50.390;30.778;2024-01-06T05:12:24;8.77;;;5.68;;
46447;SDS011;32145;50.390;30.778;2024-01-06T05:15:21;7.03;;;3.90;;
46447;SDS011;32145;50.390;30.778;2024-01-06T05:18:06;7.78;;;3.70;;
46447;SDS011;32145;50.390;30.778;2024-01-06T05:21:00;6.70;;;3.60;;
46447;SDS011;32145;50.390;30.778;2024-01-06T05:23:45;6.53;;;3.17;;
46447;SDS011;32145;50.390;30.778;2024-01-06T05:26:30;5.82;;;3.25;;
46447;SDS011;32145;50.390;30.778;2024-01-06T05:29:26;7.32;;;3.30;;
46447;SDS011;32145;50.390;30.778;2024-01-06T05:32:23;6.30;;;3.42;;
46447;SDS011;32145;50.390;30.778;2024-01-06T05:35:08;7.10;;;3.75;;
46447;SDS011;32145;50.390;30.778;2024-01-06T05:37:52;7.28;;;3.80;;
46447;SDS011;32145;50.390;30.778;2024-01-06T05:40:36;6.90;;;3.97;;
46447;SDS011;32145;50.390;30.778;2024-01-06T05:43:31;7.30;;;4.45;;
46447;SDS011;32145;50.390;30.778;2024-01-06T05:46:20;6.47;;;3.78;;
46447;SDS011;32145;50.390;30.778;2024-01-06T05:49:06;7.00;;;3.90;;
46447;SDS011;32145;50.390;30.778;2024-01-06T05:52:03;6.88;;;3.75;;
46447;SDS011;32145;50.390;30.778;2024-01-06T05:54:47;6.75;;;3.55;;
46447;SDS011;32145;50.390;30.778;2024-01-06T05:57:42;6.15;;;3.63;;
46447;SDS011;32145;50.390;30.778;2024-01-06T06:00:32;6.30;;;3.85;;
46447;SDS011;32145;50.390;30.778;2024-01-06T06:03:26;6.55;;;3.88;;
46447;SDS011;32145;50.390;30.778;2024-01-06T06:06:12;7.85;;;4.60;;
46447;SDS011;32145;50.390;30.778;2024-01-06T06:09:06;8.50;;;4.80;;
46447;SDS011;32145;50.390;30.778;2024-01-06T06:12:00;8.00;;;4.30;;
46447;SDS011;32145;50.390;30.778;2024-01-06T06:14:44;5.35;;;3.25;;
46447;SDS011;32145;50.390;30.778;2024-01-06T06:17:39;5.65;;;3.33;;
46447;SDS011;32145;50.390;30.778;2024-01-06T06:20:23;6.20;;;3.42;;
46447;SDS011;32145;50.390;30.778;2024-01-06T06:23:19;6.78;;;3.50;;
46447;SDS011;32145;50.390;30.778;2024-01-06T06:26:04;5.95;;;3.53;;
46447;SDS011;32145;50.390;30.778;2024-01-06T06:28:59;5.53;;;3.38;;
46447;SDS011;32145;50.390;30.778;2024-01-06T06:31:43;7.03;;;3.80;;
46447;SDS011;32145;50.390;30.778;2024-01-06T06:34:28;6.38;;;4.25;;
46447;SDS011;32145;50.390;30.778;2024-01-06T06:37:22;9.68;;;5.90;;
46447;SDS011;32145;50.390;30.778;2024-01-06T06:40:08;6.88;;;4.57;;
46447;SDS011;32145;50.390;30.778;2024-01-06T06:42:53;6.18;;;3.92;;
46447;SDS011;32145;50.390;30.778;2024-01-06T06:45:43;6.32;;;3.70;;
46447;SDS011;32145;50.390;30.778;2024-01-06T06:48:28;6.28;;;3.70;;
46447;SDS011;32145;50.390;30.778;2024-01-06T06:51:24;7.32;;;3.67;;
46447;SDS011;32145;50.390;30.778;2024-01-06T06:54:18;6.93;;;3.90;;
46447;SDS011;32145;50.390;30.778;2024-01-06T06:57:08;7.07;;;4.00;;
46447;SDS011;32145;50.390;30.778;2024-01-06T07:00:05;6.38;;;3.60;;
46447;SDS011;32145;50.390;30.778;2024-01-06T07:03:00;9.20;;;4.88;;
46447;SDS011;32145;50.390;30.778;2024-01-06T07:05:44;8.48;;;4.60;;
46447;SDS011;32145;50.390;30.778;2024-01-06T07:08:40;8.05;;;4.10;;
46447;SDS011;32145;50.390;30.778;2024-01-06T07:11:25;8.82;;;4.90;;
46447;SDS011;32145;50.390;30.778;2024-01-06T07:14:11;8.55;;;4.40;;
46447;SDS011;32145;50.390;30.778;2024-01-06T07:17:07;6.18;;;3.72;;
46447;SDS011;32145;50.390;30.778;2024-01-06T07:19:52;7.15;;;3.83;;
46447;SDS011;32145;50.390;30.778;2024-01-06T07:22:46;7.50;;;4.20;;
46447;SDS011;32145;50.390;30.778;2024-01-06T07:25:40;7.55;;;4.18;;
46447;SDS011;32145;50.390;30.778;2024-01-06T07:28:25;7.93;;;4.00;;
46447;SDS011;32145;50.390;30.778;2024-01-06T07:31:11;8.70;;;5.03;;
46447;SDS011;32145;50.390;30.778;2024-01-06T07:34:06;10.32;;;5.55;;
46447;SDS011;32145;50.390;30.778;2024-01-06T07:37:00;11.38;;;5.53;;
46447;SDS011;32145;50.390;30.778;2024-01-06T07:39:44;9.98;;;5.70;;
46447;SDS011;32145;50.390;30.778;2024-01-06T07:42:38;11.50;;;5.43;;
46447;SDS011;32145;50.390;30.778;2024-01-06T07:45:32;16.45;;;7.78;;
46447;SDS011;32145;50.390;30.778;2024-01-06T07:48:24;15.18;;;7.50;;
46447;SDS011;32145;50.390;30.778;2024-01-06T07:51:08;15.23;;;8.20;;
46447;SDS011;32145;50.390;30.778;2024-01-06T07:54:05;12.95;;;7.05;;
46447;SDS011;32145;50.390;30.778;2024-01-06T07:56:49;11.52;;;6.90;;
46447;SDS011;32145;50.390;30.778;2024-01-06T07:59:45;12.23;;;6.70;;
46447;SDS011;32145;50.390;30.778;2024-01-06T08:02:42;13.05;;;6.57;;
46447;SDS011;32145;50.390;30.778;2024-01-06T08:05:28;10.60;;;5.80;;
46447;SDS011;32145;50.390;30.778;2024-01-06T08:08:12;11.73;;;6.13;;
46447;SDS011;32145;50.390;30.778;2024-01-06T08:11:08;10.68;;;5.90;;
46447;SDS011;32145;50.390;30.778;2024-01-06T08:13:52;12.57;;;6.80;;
46447;SDS011;32145;50.390;30.778;2024-01-06T08:16:47;11.70;;;6.78;;
46447;SDS011;32145;50.390;30.778;2024-01-06T08:19:41;12.43;;;6.60;;
46447;SDS011;32145;50.390;30.778;2024-01-06T08:22:27;9.63;;;5.78;;
46447;SDS011;32145;50.390;30.778;2024-01-06T08:25:21;12.15;;;6.22;;
46447;SDS011;32145;50.390;30.778;2024-01-06T08:28:17;10.63;;;5.60;;
46447;SDS011;32145;50.390;30.778;2024-01-06T08:31:14;13.85;;;7.20;;
46447;SDS011;32145;50.390;30.778;2024-01-06T08:33:58;16.90;;;8.00;;
46447;SDS011;32145;50.390;30.778;2024-01-06T08:36:52;15.70;;;7.88;;
46447;SDS011;32145;50.390;30.778;2024-01-06T08:39:38;20.27;;;9.48;;
46447;SDS011;32145;50.390;30.778;2024-01-06T08:42:34;17.80;;;9.18;;
46447;SDS011;32145;50.390;30.778;2024-01-06T08:45:19;16.40;;;8.98;;
46447;SDS011;32145;50.390;30.778;2024-01-06T08:48:09;13.20;;;7.20;;
46447;SDS011;32145;50.390;30.778;2024-01-06T08:51:04;11.50;;;6.63;;
46447;SDS011;32145;50.390;30.778;2024-01-06T08:53:48;11.35;;;6.50;;
46447;SDS011;32145;50.390;30.778;2024-01-06T08:56:45;10.25;;;5.97;;
46447;SDS011;32145;50.390;30.778;2024-01-06T08:59:29;11.57;;;6.47;;
46447;SDS011;32145;50.390;30.778;2024-01-06T09:02:14;11.38;;;6.88;;
46447;SDS011;32145;50.390;30.778;2024-01-06T09:05:10;11.75;;;6.78;;
46447;SDS011;32145;50.390;30.778;2024-01-06T09:07:55;9.48;;;5.57;;
46447;SDS011;32145;50.390;30.778;2024-01-06T09:10:39;9.07;;;5.72;;
46447;SDS011;32145;50.390;30.778;2024-01-06T09:13:30;10.60;;;5.40;;
46447;SDS011;32145;50.390;30.778;2024-01-06T09:16:25;13.43;;;7.28;;
46447;SDS011;32145;50.390;30.778;2024-01-06T09:19:09;15.48;;;8.57;;
46447;SDS011;32145;50.390;30.778;2024-01-06T09:22:04;15.68;;;8.80;;
46447;SDS011;32145;50.390;30.778;2024-01-06T09:24:48;16.02;;;8.85;;
46447;SDS011;32145;50.390;30.778;2024-01-06T09:27:42;12.35;;;6.97;;
46447;SDS011;32145;50.390;30.778;2024-01-06T09:30:38;9.55;;;5.63;;
46447;SDS011;32145;50.390;30.778;2024-01-06T09:33:22;7.97;;;5.22;;
46447;SDS011;32145;50.390;30.778;2024-01-06T09:36:17;8.13;;;5.20;;
46447;SDS011;32145;50.390;30.778;2024-01-06T09:39:01;10.10;;;5.57;;
46447;SDS011;32145;50.390;30.778;2024-01-06T09:41:46;9.35;;;5.32;;
46447;SDS011;32145;50.390;30.778;2024-01-06T09:44:30;12.02;;;6.25;;
46447;SDS011;32145;50.390;30.778;2024-01-06T09:47:29;14.57;;;6.85;;
46447;SDS011;32145;50.390;30.778;2024-01-06T09:50:24;11.27;;;6.53;;
46447;SDS011;32145;50.390;30.778;2024-01-06T09:53:08;11.20;;;7.18;;
46447;SDS011;32145;50.390;30.778;2024-01-06T09:55:54;13.63;;;7.35;;
46447;SDS011;32145;50.390;30.778;2024-01-06T09:58:49;13.65;;;7.15;;
46447;SDS011;32145;50.390;30.778;2024-01-06T10:01:34;11.10;;;5.80;;
46447;SDS011;32145;50.390;30.778;2024-01-06T10:04:32;13.63;;;7.35;;
46447;SDS011;32145;50.390;30.778;2024-01-06T10:07:16;11.40;;;6.20;;
46447;SDS011;32145;50.390;30.778;2024-01-06T10:10:11;11.95;;;7.13;;
46447;SDS011;32145;50.390;30.778;2024-01-06T10:13:05;13.73;;;7.00;;
46447;SDS011;32145;50.390;30.778;2024-01-06T10:15:50;10.38;;;6.25;;
46447;SDS011;32145;50.390;30.778;2024-01-06T10:18:45;11.45;;;6.75;;
46447;SDS011;32145;50.390;30.778;2024-01-06T10:21:30;9.80;;;6.32;;
46447;SDS011;32145;50.390;30.778;2024-01-06T10:24:17;12.05;;;6.80;;
46447;SDS011;32145;50.390;30.778;2024-01-06T10:27:01;10.32;;;6.13;;
46447;SDS011;32145;50.390;30.778;2024-01-06T10:29:58;10.05;;;5.90;;
46447;SDS011;32145;50.390;30.778;2024-01-06T10:32:41;11.48;;;6.68;;
46447;SDS011;32145;50.390;30.778;2024-01-06T10:35:36;13.88;;;6.32;;
46447;SDS011;32145;50.390;30.778;2024-01-06T10:38:32;9.23;;;5.88;;
46447;SDS011;32145;50.390;30.778;2024-01-06T10:41:17;10.48;;;5.88;;
46447;SDS011;32145;50.390;30.778;2024-01-06T10:44:09;11.57;;;6.28;;
46447;SDS011;32145;50.390;30.778;2024-01-06T10:46:54;11.63;;;6.00;;
46447;SDS011;32145;50.390;30.778;2024-01-06T10:49:53;12.13;;;6.63;;
46447;SDS011;32145;50.390;30.778;2024-01-06T10:52:52;16.35;;;6.68;;
46447;SDS011;32145;50.390;30.778;2024-01-06T10:55:50;12.65;;;6.38;;
46447;SDS011;32145;50.390;30.778;2024-01-06T10:58:36;15.80;;;7.85;;
46447;SDS011;32145;50.390;30.778;2024-01-06T11:01:33;16.42;;;8.48;;
46447;SDS011;32145;50.390;30.778;2024-01-06T11:04:18;16.75;;;8.00;;
46447;SDS011;32145;50.390;30.778;2024-01-06T11:07:04;13.45;;;7.32;;
46447;SDS011;32145;50.390;30.778;2024-01-06T11:09:50;13.38;;;7.40;;
46447;SDS011;32145;50.390;30.778;2024-01-06T11:12:43;12.43;;;6.68;;
46447;SDS011;32145;50.390;30.778;2024-01-06T11:15:43;14.15;;;7.70;;
46447;SDS011;32145;50.390;30.778;2024-01-06T11:18:39;14.10;;;7.60;;
46447;SDS011;32145;50.390;30.778;2024-01-06T11:21:33;15.82;;;8.15;;
46447;SDS011;32145;50.390;30.778;2024-01-06T11:24:28;16.63;;;8.88;;
46447;SDS011;32145;50.390;30.778;2024-01-06T11:27:30;12.85;;;7.85;;
46447;SDS011;32145;50.390;30.778;2024-01-06T11:30:26;16.15;;;8.13;;
46447;SDS011;32145;50.390;30.778;2024-01-06T11:33:11;12.40;;;7.38;;
46447;SDS011;32145;50.390;30.778;2024-01-06T11:36:08;12.43;;;7.43;;
46447;SDS011;32145;50.390;30.778;2024-01-06T11:39:05;12.20;;;7.57;;
46447;SDS011;32145;50.390;30.778;2024-01-06T11:42:01;12.77;;;7.25;;
46447;SDS011;32145;50.390;30.778;2024-01-06T11:45:01;12.95;;;8.00;;
46447;SDS011;32145;50.390;30.778;2024-01-06T11:47:57;14.45;;;7.57;;
46447;SDS011;32145;50.390;30.778;2024-01-06T11:50:43;15.18;;;8.18;;
46447;SDS011;32145;50.390;30.778;2024-01-06T11:53:39;13.38;;;8.57;;
46447;SDS011;32145;50.390;30.778;2024-01-06T11:56:35;19.17;;;10.10;;
46447;SDS011;32145;50.390;30.778;2024-01-06T11:59:20;20.27;;;10.32;;
46447;SDS011;32145;50.390;30.778;2024-01-06T12:02:04;19.15;;;10.85;;
46447;SDS011;32145;50.390;30.778;2024-01-06T12:05:00;18.20;;;10.80;;
46447;SDS011;32145;50.390;30.778;2024-01-06T12:07:52;18.02;;;9.85;;
46447;SDS011;32145;50.390;30.778;2024-01-06T12:10:37;17.58;;;10.43;;
46447;SDS011;32145;50.390;30.778;2024-01-06T12:13:21;16.40;;;9.32;;
46447;SDS011;32145;50.390;30.778;2024-01-06T12:16:06;24.95;;;14.25;;
46447;SDS011;32145;50.390;30.778;2024-01-06T12:19:02;17.42;;;9.77;;
46447;SDS011;32145;50.390;30.778;2024-01-06T12:21:48;15.10;;;8.52;;
46447;SDS011;32145;50.390;30.778;2024-01-06T12:24:43;13.65;;;8.15;;
46447;SDS011;32145;50.390;30.778;2024-01-06T12:27:27;13.23;;;7.95;;
46447;SDS011;32145;50.390;30.778;2024-01-06T12:30:23;13.90;;;7.95;;
46447;SDS011;32145;50.390;30.778;2024-01-06T12:33:08;13.27;;;7.32;;
46447;SDS011;32145;50.390;30.778;2024-01-06T12:35:53;12.38;;;7.63;;
46447;SDS011;32145;50.390;30.778;2024-01-06T12:38:45;14.30;;;8.68;;
46447;SDS011;32145;50.390;30.778;2024-01-06T12:41:40;14.48;;;7.90;;
46447;SDS011;32145;50.390;30.778;2024-01-06T12:44:25;13.50;;;7.38;;
46447;SDS011;32145;50.390;30.778;2024-01-06T12:47:09;10.13;;;6.65;;
46447;SDS011;32145;50.390;30.778;2024-01-06T12:49:53;11.70;;;7.28;;
46447;SDS011;32145;50.390;30.778;2024-01-06T12:52:48;13.63;;;8.27;;
46447;SDS011;32145;50.390;30.778;2024-01-06T12:55:33;22.63;;;12.52;;
46447;SDS011;32145;50.390;30.778;2024-01-06T12:58:24;20.42;;;11.20;;
46447;SDS011;32145;50.390;30.778;2024-01-06T13:01:08;18.40;;;11.38;;
46447;SDS011;32145;50.390;30.778;2024-01-06T13:04:05;15.90;;;10.13;;
46447;SDS011;32145;50.390;30.778;2024-01-06T13:06:49;14.02;;;8.65;;
46447;SDS011;32145;50.390;30.778;2024-01-06T13:09:44;12.75;;;7.90;;
46447;SDS011;32145;50.390;30.778;2024-01-06T13:12:40;12.02;;;7.50;;
46447;SDS011;32145;50.390;30.778;2024-01-06T13:15:24;11.93;;;7.40;;
46447;SDS011;32145;50.390;30.778;2024-01-06T13:18:18;13.88;;;8.18;;
46447;SDS011;32145;50.390;30.778;2024-01-06T13:21:03;12.50;;;7.50;;
46447;SDS011;32145;50.390;30.778;2024-01-06T13:23:57;11.23;;;6.95;;
46447;SDS011;32145;50.390;30.778;2024-01-06T13:26:41;12.85;;;7.15;;
46447;SDS011;32145;50.390;30.778;2024-01-06T13:29:37;10.75;;;6.65;;
46447;SDS011;32145;50.390;30.778;2024-01-06T13:32:21;12.98;;;7.30;;
46447;SDS011;32145;50.390;30.778;2024-01-06T13:35:06;16.58;;;6.82;;
46447;SDS011;32145;50.390;30.778;2024-01-06T13:38:03;11.15;;;7.30;;
46447;SDS011;32145;50.390;30.778;2024-01-06T13:40:53;13.30;;;7.43;;
46447;SDS011;32145;50.390;30.778;2024-01-06T13:43:47;13.07;;;7.65;;
46447;SDS011;32145;50.390;30.778;2024-01-06T13:46:43;13.50;;;8.00;;
46447;SDS011;32145;50.390;30.778;2024-01-06T13:49:28;15.93;;;8.77;;
46447;SDS011;32145;50.390;30.778;2024-01-06T13:52:22;17.83;;;9.40;;
46447;SDS011;32145;50.390;30.778;2024-01-06T13:55:07;26.65;;;13.05;;
46447;SDS011;32145;50.390;30.778;2024-01-06T13:57:57;22.10;;;12.43;;
46447;SDS011;32145;50.390;30.778;2024-01-06T14:00:42;23.58;;;12.52;;
46447;SDS011;32145;50.390;30.778;2024-01-06T14:03:34;41.58;;;17.30;;
46447;SDS011;32145;50.390;30.778;2024-01-06T14:06:18;49.38;;;20.60;;
46447;SDS011;32145;50.390;30.778;2024-01-06T14:09:08;40.35;;;18.35;;
46447;SDS011;32145;50.390;30.778;2024-01-06T14:11:52;38.95;;;18.10;;
46447;SDS011;32145;50.390;30.778;2024-01-06T14:14:43;30.50;;;15.20;;
46447;SDS011;32145;50.390;30.778;2024-01-06T14:17:37;26.98;;;14.27;;
46447;SDS011;32145;50.390;30.778;2024-01-06T14:20:36;20.08;;;11.05;;
46447;SDS011;32145;50.390;30.778;2024-01-06T14:23:30;18.75;;;11.00;;
46447;SDS011;32145;50.390;30.778;2024-01-06T14:26:25;17.73;;;10.15;;
46447;SDS011;32145;50.390;30.778;2024-01-06T14:29:19;15.50;;;9.73;;
46447;SDS011;32145;50.390;30.778;2024-01-06T14:32:13;13.57;;;8.23;;
46447;SDS011;32145;50.390;30.778;2024-01-06T14:35:08;13.63;;;7.88;;
46447;SDS011;32145;50.390;30.778;2024-01-06T14:38:03;15.15;;;8.73;;
46447;SDS011;32145;50.390;30.778;2024-01-06T14:40:58;12.32;;;8.75;;
46447;SDS011;32145;50.390;30.778;2024-01-06T14:43:52;13.20;;;8.70;;
46447;SDS011;32145;50.390;30.778;2024-01-06T14:46:46;13.20;;;8.98;;
46447;SDS011;32145;50.390;30.778;2024-01-06T14:49:41;14.95;;;9.23;;
46447;SDS011;32145;50.390;30.778;2024-01-06T14:52:35;26.02;;;14.13;;
46447;SDS011;32145;50.390;30.778;2024-01-06T14:55:33;48.55;;;22.63;;
46447;SDS011;32145;50.390;30.778;2024-01-06T14:58:29;124.05;;;54.25;;
46447;SDS011;32145;50.390;30.778;2024-01-06T15:01:26;109.45;;;54.65;;
46447;SDS011;32145;50.390;30.778;2024-01-06T15:04:22;53.05;;;28.48;;
46447;SDS011;32145;50.390;30.778;2024-01-06T15:07:18;39.90;;;21.42;;
46447;SDS011;32145;50.390;30.778;2024-01-06T15:10:14;32.20;;;17.85;;
46447;SDS011;32145;50.390;30.778;2024-01-06T15:13:12;33.85;;;18.13;;
46447;SDS011;32145;50.390;30.778;2024-01-06T15:16:08;49.67;;;25.55;;
46447;SDS011;32145;50.390;30.778;2024-01-06T15:19:05;75.00;;;38.78;;
46447;SDS011;32145;50.390;30.778;2024-01-06T15:22:01;73.57;;;38.30;;
46447;SDS011;32145;50.390;30.778;2024-01-06T15:24:57;65.82;;;33.85;;
46447;SDS011;32145;50.390;30.778;2024-01-06T15:27:53;61.58;;;28.50;;
46447;SDS011;32145;50.390;30.778;2024-01-06T15:30:51;47.42;;;25.17;;
46447;SDS011;32145;50.390;30.778;2024-01-06T15:33:47;39.65;;;20.40;;
46447;SDS011;32145;50.390;30.778;2024-01-06T15:36:43;38.45;;;20.33;;
46447;SDS011;32145;50.390;30.778;2024-01-06T15:39:38;36.47;;;19.30;;
46447;SDS011;32145;50.390;30.778;2024-01-06T15:42:32;32.05;;;18.38;;
46447;SDS011;32145;50.390;30.778;2024-01-06T15:45:26;26.80;;;14.45;;
46447;SDS011;32145;50.390;30.778;2024-01-06T15:48:22;24.95;;;14.95;;
46447;SDS011;32145;50.390;30.778;2024-01-06T15:51:16;25.13;;;14.30;;
46447;SDS011;32145;50.390;30.778;2024-01-06T15:54:12;25.65;;;14.02;;
46447;SDS011;32145;50.390;30.778;2024-01-06T15:57:08;33.38;;;19.02;;
46447;SDS011;32145;50.390;30.778;2024-01-06T16:00:05;27.67;;;14.88;;
46447;SDS011;32145;50.390;30.778;2024-01-06T16:03:03;24.35;;;14.05;;
46447;SDS011;32145;50.390;30.778;2024-01-06T16:06:01;21.38;;;12.50;;
46447;SDS011;32145;50.390;30.778;2024-01-06T16:08:57;17.02;;;10.23;;
46447;SDS011;32145;50.390;30.778;2024-01-06T16:11:53;18.35;;;10.63;;
46447;SDS011;32145;50.390;30.778;2024-01-06T16:14:50;19.58;;;10.75;;
46447;SDS011;32145;50.390;30.778;2024-01-06T16:17:46;20.10;;;11.10;;
46447;SDS011;32145;50.390;30.778;2024-01-06T16:20:42;18.30;;;11.35;;
46447;SDS011;32145;50.390;30.778;2024-01-06T16:23:40;20.42;;;10.98;;
46447;SDS011;32145;50.390;30.778;2024-01-06T16:26:34;24.40;;;12.73;;
46447;SDS011;32145;50.390;30.778;2024-01-06T16:29:28;22.55;;;12.45;;
46447;SDS011;32145;50.390;30.778;2024-01-06T16:32:23;20.45;;;11.45;;
46447;SDS011;32145;50.390;30.778;2024-01-06T16:35:17;21.05;;;11.88;;
46447;SDS011;32145;50.390;30.778;2024-01-06T16:38:11;23.10;;;13.88;;
46447;SDS011;32145;50.390;30.778;2024-01-06T16:41:08;25.08;;;14.35;;